createdAt,value
2022-10-22T00:04:46.236Z,10
2022-10-22T00:09:53.038Z,10
2022-10-22T00:14:53.030Z,10
2022-10-22T00:19:53.145Z,8
2022-10-22T00:25:46.240Z,8
2022-10-22T00:30:46.231Z,8
2022-10-22T00:35:46.232Z,7
2022-10-22T00:40:53.123Z,10
2022-10-22T00:45:53.118Z,10
2022-10-22T00:50:53.641Z,8
2022-10-22T00:55:53.668Z,9
2022-10-22T01:01:46.257Z,8
2022-10-22T01:06:53.098Z,13
2022-10-22T01:11:53.449Z,9
2022-10-22T01:17:46.265Z,6
2022-10-22T01:22:53.008Z,10
2022-10-22T01:27:53.528Z,8
2022-10-22T01:33:46.273Z,14
2022-10-22T01:38:53.501Z,9
2022-10-22T01:44:46.217Z,7
2022-10-22T01:49:46.260Z,8
2022-10-22T01:54:46.237Z,9
2022-10-22T02:00:46.297Z,12
2022-10-22T02:05:46.276Z,11
2022-10-22T02:10:53.449Z,8
2022-10-22T02:16:46.262Z,9
2022-10-22T02:21:53.339Z,8
2022-10-22T02:26:53.590Z,7
2022-10-22T02:31:53.722Z,7
2022-10-22T02:37:46.292Z,9
2022-10-22T02:42:53.959Z,7
2022-10-22T02:48:46.260Z,11
2022-10-22T02:53:53.669Z,8
2022-10-22T02:59:46.272Z,7
2022-10-22T03:04:54.612Z,8
2022-10-22T03:10:46.286Z,10
2022-10-22T03:15:46.281Z,8
2022-10-22T03:21:46.243Z,8
2022-10-22T03:26:53.592Z,8
2022-10-22T03:31:53.875Z,8
2022-10-22T03:36:58.776Z,10
2022-10-22T03:42:46.475Z,10
2022-10-22T03:47:46.266Z,8
2022-10-22T03:52:53.067Z,8
2022-10-22T03:57:53.096Z,11
2022-10-22T04:03:46.267Z,10
2022-10-22T04:08:53.116Z,10
2022-10-22T04:13:53.395Z,11
2022-10-22T04:18:53.936Z,7
2022-10-22T04:24:46.298Z,10
2022-10-22T04:29:46.292Z,11
2022-10-22T04:34:53.033Z,10
2022-10-22T04:39:53.093Z,9
2022-10-22T04:44:53.877Z,14
2022-10-22T04:50:46.273Z,8
2022-10-22T04:55:46.290Z,11
2022-10-22T05:00:53.119Z,13
2022-10-22T05:06:46.281Z,10
2022-10-22T05:11:46.395Z,12
2022-10-22T05:16:53.580Z,14
2022-10-22T05:22:46.269Z,12
2022-10-22T05:27:57.221Z,11
2022-10-22T05:33:46.279Z,11
2022-10-22T05:38:46.265Z,12
2022-10-22T05:43:46.269Z,15
2022-10-22T05:48:53.077Z,14
2022-10-22T05:53:53.126Z,15
2022-10-22T05:59:46.300Z,13
2022-10-22T06:04:53.491Z,13
2022-10-22T06:09:53.795Z,16
2022-10-22T06:15:46.267Z,15
2022-10-22T06:20:46.332Z,17
2022-10-22T06:25:53.046Z,15
2022-10-22T06:30:53.093Z,23
2022-10-22T06:35:53.535Z,17
2022-10-22T06:40:53.507Z,17
2022-10-22T06:46:46.297Z,15
2022-10-22T06:51:46.317Z,17
2022-10-22T06:56:53.189Z,12
2022-10-22T07:02:46.326Z,13
2022-10-22T07:07:53.602Z,16
2022-10-22T07:13:46.288Z,14
2022-10-22T07:18:46.298Z,12
2022-10-22T07:23:53.611Z,11
2022-10-22T07:29:46.300Z,11
2022-10-22T07:34:46.322Z,8
2022-10-22T07:39:53.352Z,12
2022-10-22T07:45:46.309Z,9
2022-10-22T07:50:46.378Z,12
2022-10-22T07:55:53.097Z,12
2022-10-22T08:00:53.074Z,7
2022-10-22T08:05:53.701Z,6
2022-10-22T08:11:46.521Z,6
2022-10-22T08:16:53.769Z,6
2022-10-22T08:22:46.299Z,4
2022-10-22T08:27:46.339Z,8
2022-10-22T08:32:54.223Z,8
2022-10-22T08:38:46.321Z,5
2022-10-22T08:43:53.373Z,4
2022-10-22T08:49:46.329Z,4
2022-10-22T08:54:53.783Z,3
2022-10-22T09:00:46.325Z,5
2022-10-22T09:05:46.338Z,4
2022-10-22T09:10:53.087Z,6
2022-10-22T09:16:46.349Z,4
2022-10-22T09:21:53.089Z,8
2022-10-22T09:26:53.385Z,5
2022-10-22T09:32:46.349Z,4
2022-10-22T09:37:46.319Z,4
2022-10-22T09:42:53.389Z,6
2022-10-22T09:48:02.141Z,6
2022-10-22T09:53:46.317Z,5
2022-10-22T09:58:46.325Z,7
2022-10-22T10:03:53.139Z,4
2022-10-22T10:09:53.397Z,2
2022-10-22T10:15:00.344Z,7
2022-10-22T10:20:46.343Z,5
2022-10-22T10:25:46.341Z,4
2022-10-22T10:30:53.098Z,5
2022-10-22T10:35:53.902Z,7
2022-10-22T10:41:46.337Z,4
2022-10-22T10:46:46.374Z,6
2022-10-22T10:51:53.322Z,6
2022-10-22T10:56:53.928Z,5
2022-10-22T11:02:46.379Z,3
2022-10-22T11:07:55.907Z,3
2022-10-22T11:13:46.348Z,3
2022-10-22T11:18:46.375Z,5
2022-10-22T11:23:53.351Z,3
2022-10-22T11:29:46.337Z,3
2022-10-22T11:34:53.830Z,4
2022-10-22T11:40:46.381Z,3
2022-10-22T11:45:53.104Z,3
2022-10-22T11:50:53.156Z,4
2022-10-22T11:55:53.178Z,4
2022-10-22T12:01:46.350Z,4
2022-10-22T12:06:46.393Z,4
2022-10-22T12:11:53.136Z,3
2022-10-22T12:16:57.336Z,4
2022-10-22T12:21:54.119Z,5
2022-10-22T12:27:46.368Z,3
2022-10-22T12:32:46.380Z,4
2022-10-22T12:37:53.156Z,3
2022-10-22T12:43:46.390Z,3
2022-10-22T12:48:53.633Z,4
2022-10-22T12:54:46.353Z,4
2022-10-22T12:59:49.510Z,3
2022-10-22T13:04:46.378Z,4
2022-10-22T13:09:53.764Z,3
2022-10-22T13:15:46.392Z,4
2022-10-22T13:20:53.138Z,4
2022-10-22T13:25:53.153Z,3
2022-10-22T13:30:53.686Z,2
2022-10-22T13:36:46.353Z,2
2022-10-22T13:41:46.381Z,4
2022-10-22T13:46:53.673Z,4
2022-10-22T13:52:46.378Z,6
2022-10-22T13:57:53.611Z,4
2022-10-22T14:02:53.655Z,4
2022-10-22T14:07:53.773Z,3
2022-10-22T14:13:46.384Z,3
2022-10-22T14:18:53.178Z,3
2022-10-22T14:23:53.568Z,2
2022-10-22T14:29:10.586Z,4
2022-10-22T14:34:46.411Z,3
2022-10-22T14:39:46.439Z,4
2022-10-22T14:44:53.741Z,3
2022-10-22T14:49:54.798Z,4
2022-10-22T14:55:46.406Z,5
2022-10-22T15:00:53.433Z,3
2022-10-22T15:05:53.500Z,3
2022-10-22T15:11:46.397Z,3
2022-10-22T15:16:46.421Z,3
2022-10-22T15:21:53.220Z,4
2022-10-22T15:26:53.679Z,8
2022-10-22T15:32:46.403Z,5
2022-10-22T15:37:53.621Z,3
2022-10-22T15:43:46.411Z,5
2022-10-22T15:48:53.780Z,5
2022-10-22T15:54:46.409Z,5
2022-10-22T15:59:46.423Z,7
2022-10-22T16:04:53.194Z,7
2022-10-22T16:09:54.100Z,6
2022-10-22T16:15:46.415Z,4
2022-10-22T16:20:53.195Z,9
2022-10-22T16:26:46.469Z,5
2022-10-22T16:31:53.207Z,8
2022-10-22T16:36:53.299Z,6
2022-10-22T16:41:53.673Z,6
2022-10-22T16:47:46.409Z,6
2022-10-22T16:52:53.252Z,10
2022-10-22T16:57:54.027Z,8
2022-10-22T17:03:46.411Z,8
2022-10-22T17:08:46.464Z,6
2022-10-22T17:13:46.449Z,9
2022-10-22T17:18:53.199Z,9
2022-10-22T17:23:53.205Z,8
2022-10-22T17:28:53.967Z,8
2022-10-22T17:34:46.437Z,6
2022-10-22T17:39:53.875Z,7
2022-10-22T17:45:46.439Z,8
2022-10-22T17:50:49.657Z,7
2022-10-22T17:55:46.486Z,6
2022-10-22T18:00:53.306Z,8
2022-10-22T18:05:53.575Z,6
2022-10-22T18:11:46.438Z,9
2022-10-22T18:16:53.252Z,9
2022-10-22T18:21:53.231Z,10
2022-10-22T18:26:53.242Z,13
2022-10-22T18:31:53.363Z,11
2022-10-22T18:36:59.730Z,9
2022-10-22T18:42:46.902Z,8
2022-10-22T18:47:53.877Z,14
2022-10-22T18:53:59.039Z,11
2022-10-22T18:58:53.244Z,9
2022-10-22T19:03:53.898Z,11
2022-10-22T19:09:46.458Z,25
2022-10-22T19:14:46.443Z,20
2022-10-22T19:19:46.436Z,19
2022-10-22T19:24:46.461Z,16
2022-10-22T19:29:53.252Z,10
2022-10-22T19:34:53.676Z,11
2022-10-22T19:40:46.467Z,13
2022-10-22T19:45:53.244Z,14
2022-10-22T19:51:46.451Z,11
2022-10-22T19:56:53.637Z,6
2022-10-22T20:02:46.466Z,9
2022-10-22T20:07:46.472Z,9
2022-10-22T20:12:53.229Z,8
2022-10-22T20:17:53.619Z,9
2022-10-22T20:22:53.754Z,9
2022-10-22T20:28:46.463Z,10
2022-10-22T20:34:46.488Z,10
2022-10-22T20:39:46.453Z,10
2022-10-22T20:44:53.343Z,8
2022-10-22T20:50:46.498Z,9
2022-10-22T20:55:53.242Z,8
2022-10-22T21:00:53.757Z,8
2022-10-22T21:06:46.517Z,11
2022-10-22T21:16:53.926Z,15
2022-10-22T21:21:54.001Z,7
2022-10-22T21:27:46.507Z,8
2022-10-22T21:32:54.057Z,9
2022-10-22T21:38:46.492Z,8
2022-10-22T21:44:46.471Z,6
2022-10-22T21:49:46.483Z,7
2022-10-22T21:54:53.277Z,7
2022-10-22T21:59:53.583Z,9
2022-10-22T22:05:46.537Z,6
2022-10-22T22:10:53.684Z,7
2022-10-22T22:15:53.744Z,13
2022-10-22T22:21:46.505Z,10
2022-10-22T22:26:46.523Z,6
2022-10-22T22:31:53.373Z,9
2022-10-22T22:36:53.945Z,7
2022-10-22T22:42:46.509Z,5
2022-10-22T22:47:53.771Z,7
2022-10-22T22:53:46.480Z,7
2022-10-22T22:58:46.510Z,7
2022-10-22T23:03:53.260Z,6
2022-10-22T23:09:46.481Z,8
2022-10-22T23:14:46.535Z,6
2022-10-22T23:19:53.386Z,7
2022-10-22T23:24:54.088Z,6
2022-10-22T23:30:46.520Z,11
2022-10-22T23:35:53.261Z,9
2022-10-22T23:40:53.266Z,8
2022-10-22T23:45:55.148Z,8
2022-10-22T23:51:46.547Z,6
2022-10-22T23:56:53.494Z,5
